createdAt,value
2018-04-30T00:00:04.970Z,24.20
2018-04-30T00:02:33.271Z,25.70
2018-04-30T00:05:02.314Z,26.03
2018-04-30T00:07:30.602Z,24.13
2018-04-30T00:09:59.077Z,25.37
2018-04-30T00:12:27.793Z,27.03
2018-04-30T00:14:56.189Z,24.43
2018-04-30T00:17:25.178Z,24.90
2018-04-30T00:19:54.191Z,24.73
2018-04-30T00:22:23.262Z,24.47
2018-04-30T00:24:52.431Z,25.40
2018-04-30T00:27:20.702Z,24.80
2018-04-30T00:29:49.330Z,22.70
2018-04-30T00:32:17.615Z,23.60
2018-04-30T00:34:45.913Z,23.50
2018-04-30T00:37:15.058Z,23.40
2018-04-30T00:39:44.146Z,24.20
2018-04-30T00:42:12.639Z,22.40
2018-04-30T00:44:41.110Z,27.07
2018-04-30T00:47:09.727Z,25.70
2018-04-30T00:49:37.995Z,25.67
2018-04-30T00:52:06.306Z,24.00
2018-04-30T00:54:53.160Z,24.37
2018-04-30T00:57:21.539Z,24.77
2018-04-30T00:59:49.918Z,24.07
2018-04-30T01:02:18.840Z,25.27
2018-04-30T01:04:47.614Z,26.17
2018-04-30T01:07:16.171Z,25.20
2018-04-30T01:09:46.115Z,24.27
2018-04-30T01:12:21.623Z,25.83
2018-04-30T01:14:49.918Z,25.20
2018-04-30T01:17:18.414Z,24.67
2018-04-30T01:19:46.718Z,26.17
2018-04-30T01:22:15.070Z,25.67
2018-04-30T01:24:43.468Z,23.97
2018-04-30T01:27:11.755Z,26.30
2018-04-30T01:29:40.039Z,25.30
2018-04-30T01:32:09.082Z,25.13
2018-04-30T01:34:37.498Z,25.03
2018-04-30T01:37:05.775Z,23.13
2018-04-30T01:39:34.083Z,24.93
2018-04-30T01:42:02.431Z,26.30
2018-04-30T01:44:31.054Z,23.43
2018-04-30T01:47:00.118Z,23.03
2018-04-30T01:49:28.771Z,22.30
2018-04-30T01:51:57.070Z,22.27
2018-04-30T01:54:25.355Z,23.37
2018-04-30T01:56:53.628Z,22.50
2018-04-30T01:59:21.995Z,23.40
2018-04-30T02:01:50.275Z,21.10
2018-04-30T02:04:19.451Z,22.23
2018-04-30T02:06:48.683Z,21.37
2018-04-30T02:09:17.858Z,21.93
2018-04-30T02:11:46.144Z,21.63
2018-04-30T02:14:14.539Z,21.60
2018-04-30T02:16:42.909Z,19.63
2018-04-30T02:19:11.211Z,20.93
2018-04-30T02:21:40.165Z,19.40
2018-04-30T02:24:08.454Z,20.60
2018-04-30T02:26:37.614Z,21.10
2018-04-30T02:29:06.655Z,21.00
2018-04-30T02:31:34.960Z,21.53
2018-04-30T02:34:03.518Z,20.13
2018-04-30T02:36:31.803Z,20.67
2018-04-30T02:39:00.804Z,17.20
2018-04-30T02:41:29.872Z,18.73
2018-04-30T02:43:58.264Z,21.23
2018-04-30T02:46:26.571Z,18.67
2018-04-30T02:48:54.876Z,18.30
2018-04-30T02:51:23.938Z,19.73
2018-04-30T02:53:52.311Z,19.93
2018-04-30T02:56:20.608Z,19.20
2018-04-30T02:58:49.258Z,20.30
2018-04-30T03:01:17.528Z,18.10
2018-04-30T03:03:46.023Z,17.53
2018-04-30T03:06:15.011Z,20.67
2018-04-30T03:08:43.285Z,19.90
2018-04-30T03:11:11.585Z,19.60
2018-04-30T03:13:39.990Z,21.00
2018-04-30T03:16:09.095Z,17.77
2018-04-30T03:18:38.290Z,18.00
2018-04-30T03:21:06.571Z,18.60
2018-04-30T03:23:34.847Z,20.23
2018-04-30T03:26:04.607Z,20.03
2018-04-30T03:28:32.883Z,18.90
2018-04-30T03:31:01.160Z,18.63
2018-04-30T03:33:29.561Z,20.20
2018-04-30T03:35:57.873Z,19.77
2018-04-30T03:38:26.150Z,19.33
2018-04-30T03:40:54.447Z,20.90
2018-04-30T03:43:23.498Z,19.83
2018-04-30T03:45:51.772Z,21.43
2018-04-30T03:48:20.074Z,20.43
2018-04-30T03:50:48.350Z,21.20
2018-04-30T03:53:16.627Z,21.50
2018-04-30T03:55:44.967Z,20.23
2018-04-30T03:58:13.251Z,21.20
2018-04-30T04:00:59.259Z,20.17
2018-04-30T04:03:45.406Z,19.60
2018-04-30T04:09:24.207Z,21.13
2018-04-30T04:11:52.502Z,19.23
2018-04-30T04:14:20.786Z,19.33
2018-04-30T04:16:49.839Z,19.87
2018-04-30T04:19:18.419Z,20.03
2018-04-30T04:21:47.924Z,18.67
2018-04-30T04:24:16.224Z,18.30
2018-04-30T04:26:44.589Z,19.20
2018-04-30T04:29:12.878Z,19.07
2018-04-30T04:31:41.279Z,19.50
2018-04-30T04:34:10.398Z,20.50
2018-04-30T04:36:39.752Z,19.33
2018-04-30T04:39:08.120Z,19.30
2018-04-30T04:41:36.610Z,19.70
2018-04-30T04:44:04.824Z,20.90
2018-04-30T04:46:33.131Z,19.77
2018-04-30T04:49:01.453Z,18.20
2018-04-30T04:51:29.726Z,20.00
2018-04-30T04:53:58.002Z,18.50
2018-04-30T04:56:26.379Z,20.00
2018-04-30T04:58:54.659Z,20.57
2018-04-30T05:01:22.930Z,18.00
2018-04-30T05:03:51.298Z,18.70
2018-04-30T05:06:19.926Z,20.80
2018-04-30T05:08:48.235Z,18.80
2018-04-30T05:11:17.582Z,19.83
2018-04-30T05:13:45.955Z,19.30
2018-04-30T05:16:14.250Z,20.43
2018-04-30T05:18:42.756Z,18.70
2018-04-30T05:21:11.178Z,17.87
2018-04-30T05:23:39.463Z,20.40
2018-04-30T05:26:07.743Z,20.50
2018-04-30T05:28:36.227Z,18.63
2018-04-30T05:31:04.509Z,20.03
2018-04-30T05:33:32.782Z,20.50
2018-04-30T05:36:02.178Z,18.33
2018-04-30T05:38:30.459Z,18.20
2018-04-30T05:40:58.730Z,20.60
2018-04-30T05:43:27.127Z,18.83
2018-04-30T05:45:55.421Z,18.90
2018-04-30T05:48:24.099Z,18.80
2018-04-30T05:50:52.398Z,19.67
2018-04-30T05:53:20.989Z,17.93
2018-04-30T05:55:50.071Z,19.93
2018-04-30T05:58:18.438Z,17.40
2018-04-30T06:00:46.706Z,15.77
2018-04-30T06:03:15.190Z,15.80
2018-04-30T06:05:43.478Z,17.57
2018-04-30T06:08:11.839Z,14.63
2018-04-30T06:10:40.130Z,16.43
2018-04-30T06:13:08.411Z,16.33
2018-04-30T06:15:37.462Z,15.10
2018-04-30T06:18:06.694Z,14.57
2018-04-30T06:20:36.463Z,14.90
2018-04-30T06:23:05.512Z,15.20
2018-04-30T06:25:33.828Z,16.57
2018-04-30T06:28:02.115Z,16.97
2018-04-30T06:30:31.267Z,15.53
2018-04-30T06:32:59.630Z,17.20
2018-04-30T06:35:28.460Z,16.70
2018-04-30T06:37:57.044Z,17.40
2018-04-30T06:40:26.955Z,16.90
2018-04-30T06:42:55.231Z,16.43
2018-04-30T06:45:23.686Z,17.93
2018-04-30T06:47:52.398Z,19.20
2018-04-30T06:50:20.710Z,17.73
2018-04-30T06:52:49.772Z,18.90
2018-04-30T06:55:18.149Z,20.20
2018-04-30T06:57:46.549Z,17.63
2018-04-30T07:00:14.862Z,17.60
2018-04-30T07:02:43.925Z,17.60
2018-04-30T07:05:12.213Z,18.30
2018-04-30T07:07:40.953Z,18.10
2018-04-30T07:10:09.233Z,16.37
2018-04-30T07:12:38.344Z,19.33
2018-04-30T07:15:06.643Z,18.30
2018-04-30T07:17:34.945Z,19.13
2018-04-30T07:20:04.295Z,16.30
2018-04-30T07:22:32.817Z,16.03
2018-04-30T07:25:01.129Z,16.97
2018-04-30T07:27:29.497Z,14.60
2018-04-30T07:29:57.735Z,15.53
2018-04-30T07:32:26.291Z,14.40
2018-04-30T07:34:54.563Z,14.33
2018-04-30T07:37:23.767Z,13.80
2018-04-30T07:39:52.092Z,15.40
2018-04-30T07:42:20.381Z,15.27
2018-04-30T07:44:49.521Z,13.87
2018-04-30T07:47:17.806Z,13.13
2018-04-30T07:49:46.099Z,13.60
2018-04-30T07:52:14.411Z,12.97
2018-04-30T07:54:43.459Z,14.27
2018-04-30T07:57:11.753Z,14.27
2018-04-30T07:59:40.050Z,13.70
2018-04-30T08:02:08.492Z,13.20
2018-04-30T08:04:36.870Z,13.60
2018-04-30T08:07:05.151Z,14.07
2018-04-30T08:09:33.473Z,14.20
2018-04-30T08:12:02.521Z,13.30
2018-04-30T08:14:30.799Z,13.67
2018-04-30T08:16:59.103Z,13.70
2018-04-30T08:19:27.480Z,12.77
2018-04-30T08:21:55.980Z,16.20
2018-04-30T08:24:24.315Z,14.77
2018-04-30T08:26:52.587Z,14.67
2018-04-30T08:29:20.880Z,14.67
2018-04-30T08:31:49.188Z,16.30
2018-04-30T08:34:17.458Z,14.50
2018-04-30T08:36:46.444Z,14.20
2018-04-30T08:39:14.818Z,13.00
2018-04-30T08:41:43.178Z,13.57
2018-04-30T08:44:13.127Z,15.70
2018-04-30T08:46:41.992Z,15.07
2018-04-30T08:49:10.354Z,15.53
2018-04-30T08:51:39.378Z,13.23
2018-04-30T08:54:07.675Z,14.93
2018-04-30T08:56:35.954Z,14.77
2018-04-30T08:59:05.200Z,12.27
2018-04-30T09:01:33.469Z,12.60
2018-04-30T09:04:01.965Z,14.47
2018-04-30T09:06:30.586Z,13.80
2018-04-30T09:08:58.861Z,13.90
2018-04-30T09:11:27.943Z,14.67
2018-04-30T09:13:56.262Z,14.13
2018-04-30T09:16:24.543Z,14.50
2018-04-30T09:18:53.590Z,15.03
2018-04-30T09:21:21.970Z,14.33
2018-04-30T09:23:51.188Z,16.07
2018-04-30T09:26:19.460Z,14.40
2018-04-30T09:28:47.764Z,15.03
2018-04-30T09:31:16.106Z,15.40
2018-04-30T09:33:44.457Z,15.90
2018-04-30T09:36:13.503Z,14.00
2018-04-30T09:38:41.867Z,15.63
2018-04-30T09:41:10.372Z,16.27
2018-04-30T09:43:39.039Z,14.77
2018-04-30T09:46:07.421Z,14.80
2018-04-30T09:48:35.709Z,15.00
2018-04-30T09:51:04.817Z,14.97
2018-04-30T09:53:33.122Z,15.80
2018-04-30T09:56:03.427Z,15.93
2018-04-30T09:58:31.750Z,16.00
2018-04-30T10:01:00.070Z,16.27
2018-04-30T10:03:28.346Z,16.93
2018-04-30T10:05:56.724Z,14.47
2018-04-30T10:08:25.439Z,16.83
2018-04-30T10:10:54.998Z,16.77
2018-04-30T10:13:23.300Z,17.57
2018-04-30T10:15:52.370Z,18.20
2018-04-30T10:18:20.655Z,17.40
2018-04-30T10:20:48.971Z,18.90
2018-04-30T10:23:17.341Z,17.97
2018-04-30T10:25:46.569Z,18.90
2018-04-30T10:28:14.897Z,17.70
2018-04-30T10:30:43.171Z,16.90
2018-04-30T10:33:11.452Z,19.07
2018-04-30T10:35:40.270Z,17.73
2018-04-30T10:38:08.688Z,18.27
2018-04-30T10:40:36.956Z,20.33
2018-04-30T10:43:06.011Z,20.67
2018-04-30T10:45:34.384Z,21.00
2018-04-30T10:48:02.678Z,21.80
2018-04-30T10:50:30.976Z,21.60
2018-04-30T10:53:00.032Z,21.70
2018-04-30T10:55:28.539Z,23.30
2018-04-30T10:57:57.558Z,21.73
2018-04-30T11:00:27.568Z,23.10
2018-04-30T11:02:57.246Z,23.97
2018-04-30T11:05:27.048Z,23.07
2018-04-30T11:07:55.351Z,23.83
2018-04-30T11:10:24.189Z,24.30
2018-04-30T11:12:52.562Z,25.20
2018-04-30T11:15:21.460Z,26.03
2018-04-30T11:17:49.739Z,26.70
2018-04-30T11:20:18.979Z,26.87
2018-04-30T11:22:47.542Z,29.20
2018-04-30T11:25:16.849Z,27.40
2018-04-30T11:27:46.078Z,27.33
2018-04-30T11:30:14.983Z,27.60
2018-04-30T11:32:44.052Z,27.13
2018-04-30T11:35:12.444Z,24.90
2018-04-30T11:37:40.743Z,26.10
2018-04-30T11:40:10.531Z,26.50
2018-04-30T11:42:39.798Z,28.50
2018-04-30T11:45:08.848Z,27.10
2018-04-30T11:47:37.931Z,25.73
2018-04-30T11:50:06.222Z,26.27
2018-04-30T11:52:36.182Z,26.07
2018-04-30T11:55:04.873Z,24.73
2018-04-30T11:57:33.714Z,25.03
2018-04-30T12:00:03.631Z,27.67
2018-04-30T12:02:33.502Z,27.30
2018-04-30T12:05:01.817Z,26.30
2018-04-30T12:07:30.801Z,26.93
2018-04-30T12:09:59.167Z,29.50
2018-04-30T12:12:27.465Z,31.33
2018-04-30T12:14:55.863Z,30.63
2018-04-30T12:17:25.751Z,33.80
2018-04-30T12:19:54.063Z,32.33
2018-04-30T12:22:23.187Z,30.97
2018-04-30T12:24:52.900Z,31.70
2018-04-30T12:27:21.203Z,31.67
2018-04-30T12:29:49.563Z,32.80
2018-04-30T12:32:17.842Z,33.60
2018-04-30T12:34:46.426Z,34.43
2018-04-30T12:37:15.443Z,33.10
2018-04-30T12:39:44.261Z,30.63
2018-04-30T12:42:13.589Z,33.93
2018-04-30T12:44:42.602Z,31.20
2018-04-30T12:47:11.835Z,32.03
2018-04-30T12:49:40.170Z,30.23
2018-04-30T12:52:09.709Z,32.20
2018-04-30T12:54:38.006Z,32.33
2018-04-30T12:57:06.742Z,34.67
2018-04-30T12:59:35.182Z,32.63
2018-04-30T13:02:03.472Z,28.33
2018-04-30T13:04:32.522Z,30.77
2018-04-30T13:07:01.526Z,20.60
2018-04-30T13:09:30.398Z,15.50
2018-04-30T13:11:58.687Z,15.43
2018-04-30T13:14:27.390Z,16.30
2018-04-30T13:16:55.683Z,18.63
2018-04-30T13:19:24.103Z,17.23
2018-04-30T13:21:52.375Z,18.80
2018-04-30T13:24:21.427Z,18.20
2018-04-30T13:26:49.690Z,17.63
2018-04-30T13:29:18.000Z,18.97
2018-04-30T13:31:46.538Z,15.93
2018-04-30T13:34:15.438Z,17.50
2018-04-30T13:36:43.707Z,17.30
2018-04-30T13:39:12.091Z,17.00
2018-04-30T13:41:40.351Z,15.00
2018-04-30T13:44:08.751Z,14.63
2018-04-30T13:46:37.023Z,15.60
2018-04-30T13:49:05.314Z,14.00
2018-04-30T13:51:33.622Z,14.63
2018-04-30T13:54:01.906Z,16.40
2018-04-30T13:56:30.191Z,14.27
2018-04-30T13:58:59.247Z,12.33
2018-04-30T14:01:27.636Z,13.20
2018-04-30T14:03:55.920Z,9.80
2018-04-30T14:06:24.539Z,11.10
2018-04-30T14:08:53.695Z,10.40
2018-04-30T14:11:22.223Z,11.67
2018-04-30T14:13:51.393Z,13.03
2018-04-30T14:16:20.502Z,12.33
2018-04-30T14:18:48.769Z,11.97
2018-04-30T14:21:17.307Z,9.90
2018-04-30T14:23:45.582Z,9.73
2018-04-30T14:26:13.866Z,9.47
2018-04-30T14:28:42.530Z,8.70
2018-04-30T14:31:10.821Z,6.33
2018-04-30T14:33:39.098Z,6.70
2018-04-30T14:36:07.480Z,5.30
2018-04-30T14:38:36.507Z,4.27
2018-04-30T14:41:04.888Z,4.57
2018-04-30T14:43:33.146Z,3.40
2018-04-30T14:46:02.746Z,3.07
2018-04-30T14:48:31.139Z,2.70
2018-04-30T14:50:59.423Z,2.80
2018-04-30T14:53:27.687Z,2.80
2018-04-30T14:55:56.004Z,3.30
2018-04-30T14:58:29.045Z,2.20
2018-04-30T15:00:58.329Z,2.07
2018-04-30T15:03:26.610Z,1.50
2018-04-30T15:05:54.870Z,1.10
2018-04-30T15:08:25.123Z,1.67
2018-04-30T15:10:54.251Z,1.40
2018-04-30T15:13:23.246Z,1.47
2018-04-30T15:15:52.867Z,1.10
2018-04-30T15:18:22.059Z,1.50
2018-04-30T15:20:50.746Z,1.13
2018-04-30T15:23:19.657Z,1.40
2018-04-30T15:25:47.980Z,1.40
2018-04-30T15:28:16.272Z,1.10
2018-04-30T15:30:44.550Z,1.30
2018-04-30T15:33:12.870Z,1.33
2018-04-30T15:35:41.429Z,1.20
2018-04-30T15:38:10.299Z,1.13
2018-04-30T15:40:39.735Z,1.70
2018-04-30T15:43:08.119Z,1.50
2018-04-30T15:45:37.017Z,1.40
2018-04-30T15:48:05.997Z,1.13
2018-04-30T15:50:34.839Z,1.30
2018-04-30T15:53:03.111Z,1.33
2018-04-30T15:55:31.449Z,1.00
2018-04-30T15:58:00.228Z,1.60
2018-04-30T16:00:28.434Z,1.17
2018-04-30T16:02:56.714Z,1.67
2018-04-30T16:05:25.001Z,0.90
2018-04-30T16:07:54.163Z,0.90
2018-04-30T16:10:23.247Z,0.80
2018-04-30T16:12:51.655Z,1.17
2018-04-30T16:15:20.845Z,0.83
2018-04-30T16:17:49.639Z,0.90
2018-04-30T16:20:18.591Z,0.80
2018-04-30T16:22:47.028Z,1.00
2018-04-30T16:25:15.312Z,0.80
2018-04-30T16:27:45.478Z,0.70
2018-04-30T16:30:14.027Z,0.73
2018-04-30T16:32:43.565Z,0.90
2018-04-30T16:35:11.839Z,1.00
2018-04-30T16:37:40.103Z,0.90
2018-04-30T16:40:08.549Z,0.70
2018-04-30T16:42:37.423Z,1.27
2018-04-30T16:45:05.710Z,0.70
2018-04-30T16:47:34.005Z,0.80
2018-04-30T16:50:03.098Z,0.80
2018-04-30T16:52:31.555Z,0.80
2018-04-30T16:54:59.844Z,0.57
2018-04-30T16:57:28.146Z,0.80
2018-04-30T16:59:57.584Z,0.80
2018-04-30T17:02:25.914Z,1.00
2018-04-30T17:04:54.200Z,1.03
2018-04-30T17:07:22.735Z,0.70
2018-04-30T17:09:51.022Z,0.70
2018-04-30T17:12:19.302Z,0.70
2018-04-30T17:14:47.670Z,0.80
2018-04-30T17:17:15.939Z,0.80
2018-04-30T17:19:44.432Z,0.93
2018-04-30T17:22:13.311Z,0.90
2018-04-30T17:24:41.728Z,0.97
2018-04-30T17:27:09.994Z,0.73
2018-04-30T17:29:38.288Z,0.60
2018-04-30T17:32:07.298Z,0.97
2018-04-30T17:34:35.569Z,0.80
2018-04-30T17:37:03.923Z,0.93
2018-04-30T17:39:32.742Z,0.70
2018-04-30T17:42:01.536Z,0.73
2018-04-30T17:44:30.101Z,1.00
2018-04-30T17:46:58.473Z,0.80
2018-04-30T17:49:26.744Z,0.90
2018-04-30T17:51:55.124Z,1.10
2018-04-30T17:54:23.414Z,0.80
2018-04-30T17:56:51.695Z,0.90
2018-04-30T17:59:20.023Z,1.10
2018-04-30T18:01:48.288Z,0.70
2018-04-30T18:04:17.330Z,0.80
2018-04-30T18:06:46.022Z,1.00
2018-04-30T18:09:14.337Z,0.63
2018-04-30T18:11:42.639Z,0.80
2018-04-30T18:14:10.954Z,0.93
2018-04-30T18:16:39.229Z,0.90
2018-04-30T18:19:07.496Z,0.67
2018-04-30T18:21:35.797Z,0.80
2018-04-30T18:24:04.115Z,1.00
2018-04-30T18:26:33.171Z,0.97
2018-04-30T18:29:01.499Z,0.60
2018-04-30T18:31:29.816Z,0.87
2018-04-30T18:33:58.381Z,1.20
2018-04-30T18:36:26.657Z,1.03
2018-04-30T18:38:54.949Z,0.73
2018-04-30T18:41:23.414Z,0.90
2018-04-30T18:43:51.754Z,0.60
2018-04-30T18:46:20.020Z,1.00
2018-04-30T18:48:48.675Z,1.23
2018-04-30T18:51:16.955Z,1.07
2018-04-30T18:53:45.225Z,1.03
2018-04-30T18:56:13.527Z,1.30
2018-04-30T18:58:42.670Z,1.30
2018-04-30T19:01:11.723Z,1.40
2018-04-30T19:03:40.281Z,1.40
2018-04-30T19:06:08.611Z,1.10
2018-04-30T19:08:37.690Z,0.93
2018-04-30T19:11:05.955Z,2.50
2018-04-30T19:13:34.272Z,1.60
2018-04-30T19:16:03.341Z,1.53
2018-04-30T19:18:32.031Z,1.20
2018-04-30T19:21:00.963Z,1.63
2018-04-30T19:23:29.243Z,1.77
2018-04-30T19:25:57.537Z,1.80
2018-04-30T19:28:26.086Z,1.37
2018-04-30T19:30:55.252Z,1.20
2018-04-30T19:33:23.618Z,1.20
2018-04-30T19:35:52.730Z,1.53
2018-04-30T19:38:21.583Z,1.23
2018-04-30T19:40:49.882Z,0.80
2018-04-30T19:43:18.178Z,1.33
2018-04-30T19:45:46.652Z,1.10
2018-04-30T19:48:14.948Z,1.20
2018-04-30T19:50:43.537Z,1.03
2018-04-30T19:53:11.846Z,1.10
2018-04-30T19:55:40.139Z,0.90
2018-04-30T19:58:08.412Z,0.73
2018-04-30T20:00:36.710Z,0.60
2018-04-30T20:03:05.032Z,0.60
2018-04-30T20:05:33.318Z,0.80
2018-04-30T20:08:03.338Z,0.80
2018-04-30T20:10:32.394Z,0.67
2018-04-30T20:13:00.975Z,0.90
2018-04-30T20:15:29.242Z,0.87
2018-04-30T20:17:57.648Z,0.90
2018-04-30T20:20:25.995Z,1.10
2018-04-30T20:22:54.187Z,1.10
2018-04-30T20:25:22.557Z,0.77
2018-04-30T20:27:50.848Z,0.90
2018-04-30T20:30:20.052Z,0.67
2018-04-30T20:32:48.859Z,0.80
2018-04-30T20:35:17.166Z,0.60
2018-04-30T20:37:47.209Z,0.70
2018-04-30T20:40:15.494Z,0.83
2018-04-30T20:42:45.210Z,0.70
2018-04-30T20:45:14.829Z,0.90
2018-04-30T20:47:43.110Z,0.80
2018-04-30T20:50:12.294Z,0.70
2018-04-30T20:52:40.572Z,1.10
2018-04-30T20:55:10.434Z,0.97
2018-04-30T20:57:39.338Z,1.03
2018-04-30T21:00:08.493Z,0.93
2018-04-30T21:02:38.442Z,0.90
2018-04-30T21:05:06.719Z,1.23
2018-04-30T21:07:35.010Z,1.03
2018-04-30T21:10:04.074Z,1.00
2018-04-30T21:12:32.771Z,1.07
2018-04-30T21:15:01.400Z,1.33
2018-04-30T21:17:29.692Z,1.40
2018-04-30T21:19:57.950Z,1.73
2018-04-30T21:22:26.363Z,0.83
2018-04-30T21:24:55.574Z,1.27
2018-04-30T21:27:23.851Z,1.37
2018-04-30T21:29:52.666Z,1.00
2018-04-30T21:32:20.947Z,0.97
2018-04-30T21:34:50.199Z,1.10
2018-04-30T21:37:20.069Z,1.13
2018-04-30T21:39:49.119Z,1.60
2018-04-30T21:42:17.611Z,1.30
2018-04-30T21:44:46.602Z,1.40
2018-04-30T21:47:15.645Z,1.20
2018-04-30T21:49:44.704Z,1.97
2018-04-30T21:52:13.914Z,2.07
2018-04-30T21:54:44.449Z,2.60
2018-04-30T21:57:12.728Z,2.13
2018-04-30T21:59:41.007Z,2.10
2018-04-30T22:02:09.312Z,2.10
2018-04-30T22:04:38.353Z,1.70
2018-04-30T22:07:06.722Z,2.30
2018-04-30T22:09:35.262Z,2.10
2018-04-30T22:12:04.370Z,2.60
2018-04-30T22:14:32.610Z,1.80
2018-04-30T22:17:01.420Z,1.87
2018-04-30T22:19:31.593Z,1.77
2018-04-30T22:22:00.239Z,1.83
2018-04-30T22:24:29.296Z,1.67
2018-04-30T22:26:57.667Z,1.53
2018-04-30T22:29:25.926Z,1.97
2018-04-30T22:31:54.203Z,1.40
2018-04-30T22:34:22.715Z,1.33
2018-04-30T22:36:52.502Z,1.00
2018-04-30T22:39:20.765Z,1.13
2018-04-30T22:41:49.059Z,1.13
2018-04-30T22:44:19.900Z,0.90
2018-04-30T22:46:48.192Z,0.80
2018-04-30T22:49:16.561Z,0.73
2018-04-30T22:51:44.939Z,0.80
2018-04-30T22:54:14.222Z,0.93
2018-04-30T22:56:42.509Z,0.70
2018-04-30T22:59:11.139Z,0.77
2018-04-30T23:01:39.413Z,0.93
2018-04-30T23:04:08.516Z,0.70
2018-04-30T23:06:36.863Z,0.60
2018-04-30T23:09:06.048Z,0.70
2018-04-30T23:11:35.269Z,0.57
2018-04-30T23:14:03.633Z,0.50
2018-04-30T23:16:32.319Z,0.60
2018-04-30T23:19:00.606Z,0.90
2018-04-30T23:21:28.862Z,1.00
2018-04-30T23:23:57.545Z,1.03
2018-04-30T23:26:25.802Z,1.10
2018-04-30T23:28:54.082Z,1.07
2018-04-30T23:31:25.292Z,0.90
2018-04-30T23:33:53.963Z,1.50
2018-04-30T23:36:22.250Z,1.57
2018-04-30T23:38:50.712Z,1.10
2018-04-30T23:41:19.002Z,1.20
2018-04-30T23:43:47.279Z,1.03
2018-04-30T23:46:16.082Z,1.27
2018-04-30T23:48:45.107Z,1.10
2018-04-30T23:51:14.139Z,0.80
2018-04-30T23:53:43.898Z,1.00
2018-04-30T23:56:12.183Z,1.07
2018-04-30T23:58:42.243Z,1.03
